createdAt,value
2023-04-20T00:02:17.693Z,0.65
2023-04-20T00:04:46.787Z,0.70
2023-04-20T00:07:16.779Z,1.23
2023-04-20T00:09:45.017Z,0.88
2023-04-20T00:12:14.478Z,0.50
2023-04-20T00:14:42.492Z,0.80
2023-04-20T00:17:10.749Z,0.70
2023-04-20T00:19:39.046Z,4.18
2023-04-20T00:22:07.160Z,0.60
2023-04-20T00:24:35.436Z,0.80
2023-04-20T00:27:03.569Z,1.33
2023-04-20T00:29:33.036Z,1.10
2023-04-20T00:32:01.149Z,0.70
2023-04-20T00:34:29.285Z,1.35
2023-04-20T00:37:08.232Z,1.17
2023-04-20T00:39:36.418Z,0.75
2023-04-20T00:42:07.740Z,1.27
2023-04-20T00:44:37.294Z,0.80
2023-04-20T00:47:05.434Z,1.17
2023-04-20T00:49:33.670Z,0.75
2023-04-20T00:52:02.207Z,1.48
2023-04-20T00:54:31.333Z,0.50
2023-04-20T00:57:00.689Z,1.13
2023-04-20T00:59:28.815Z,0.70
2023-04-20T01:01:59.399Z,0.60
2023-04-20T01:04:28.138Z,1.30
2023-04-20T01:06:57.121Z,1.13
2023-04-20T01:09:25.258Z,1.90
2023-04-20T01:11:53.373Z,0.85
2023-04-20T01:14:21.487Z,1.70
2023-04-20T01:16:49.761Z,1.35
2023-04-20T01:19:19.388Z,0.80
2023-04-20T01:21:47.947Z,1.25
2023-04-20T01:24:17.350Z,1.67
2023-04-20T01:26:45.471Z,1.55
2023-04-20T01:29:13.564Z,1.25
2023-04-20T01:31:41.717Z,1.45
2023-04-20T01:34:10.140Z,1.13
2023-04-20T01:36:38.274Z,3.42
2023-04-20T01:39:06.783Z,1.75
2023-04-20T01:41:36.395Z,0.65
2023-04-20T01:44:04.431Z,1.20
2023-04-20T01:46:32.576Z,0.70
2023-04-20T01:49:00.923Z,0.88
2023-04-20T01:51:29.427Z,1.15
2023-04-20T01:53:57.496Z,1.15
2023-04-20T01:56:25.976Z,0.90
2023-04-20T01:58:55.473Z,1.52
2023-04-20T02:01:23.700Z,0.95
2023-04-20T02:03:52.152Z,1.10
2023-04-20T02:06:20.640Z,0.97
2023-04-20T02:08:49.025Z,0.93
2023-04-20T02:11:17.219Z,1.02
2023-04-20T02:13:45.346Z,0.93
2023-04-20T02:16:14.952Z,0.80
2023-04-20T02:18:43.022Z,2.30
2023-04-20T02:21:11.115Z,0.93
2023-04-20T02:23:39.118Z,1.13
2023-04-20T02:26:07.251Z,0.80
2023-04-20T02:28:36.275Z,0.88
2023-04-20T02:31:04.484Z,0.70
2023-04-20T02:33:34.167Z,0.93
2023-04-20T02:36:02.608Z,0.43
2023-04-20T02:38:30.778Z,0.67
2023-04-20T02:40:58.883Z,1.07
2023-04-20T02:43:27.478Z,1.03
2023-04-20T02:45:55.606Z,0.87
2023-04-20T02:48:26.067Z,1.35
2023-04-20T02:50:58.114Z,0.83
2023-04-20T02:53:26.225Z,0.87
2023-04-20T02:55:54.482Z,0.50
2023-04-20T02:58:22.579Z,0.55
2023-04-20T03:00:50.680Z,0.77
2023-04-20T03:03:21.392Z,0.53
2023-04-20T03:05:49.556Z,0.40
2023-04-20T03:08:18.971Z,0.50
2023-04-20T03:10:47.144Z,0.60
2023-04-20T03:13:17.354Z,0.40
2023-04-20T03:15:45.537Z,0.40
2023-04-20T03:18:13.700Z,0.77
2023-04-20T03:20:42.010Z,0.80
2023-04-20T03:23:10.238Z,0.30
2023-04-20T03:25:39.697Z,0.37
2023-04-20T03:28:07.741Z,0.73
2023-04-20T03:30:35.789Z,0.57
2023-04-20T03:33:04.061Z,0.47
2023-04-20T03:35:32.194Z,0.83
2023-04-20T03:38:01.255Z,0.53
2023-04-20T03:40:29.734Z,0.43
2023-04-20T03:42:59.175Z,0.70
2023-04-20T03:45:27.235Z,1.27
2023-04-20T03:47:55.395Z,7.00
2023-04-20T03:50:23.613Z,2.07
2023-04-20T03:52:51.643Z,0.47
2023-04-20T03:55:19.910Z,0.73
2023-04-20T03:57:47.992Z,0.40
2023-04-20T04:00:18.167Z,1.40
2023-04-20T04:02:46.440Z,0.43
2023-04-20T04:05:14.555Z,0.80
2023-04-20T04:07:42.602Z,1.07
2023-04-20T04:10:11.758Z,0.83
2023-04-20T04:12:39.916Z,0.60
2023-04-20T04:15:09.406Z,1.23
2023-04-20T04:17:38.912Z,0.70
2023-04-20T04:20:11.456Z,0.53
2023-04-20T04:22:39.685Z,1.53
2023-04-20T04:25:08.751Z,0.77
2023-04-20T04:27:40.097Z,0.33
2023-04-20T04:30:12.112Z,0.43
2023-04-20T04:32:41.877Z,1.73
2023-04-20T04:35:11.342Z,0.87
2023-04-20T04:37:39.422Z,0.43
2023-04-20T04:40:09.177Z,1.17
2023-04-20T04:42:37.654Z,0.60
2023-04-20T04:45:07.436Z,0.63
2023-04-20T04:47:36.561Z,0.80
2023-04-20T04:50:07.246Z,1.50
2023-04-20T04:52:35.384Z,0.73
2023-04-20T04:55:08.054Z,1.20
2023-04-20T04:57:38.523Z,2.47
2023-04-20T05:00:09.683Z,1.70
2023-04-20T05:02:38.062Z,0.67
2023-04-20T05:05:10.050Z,1.33
2023-04-20T05:07:40.339Z,0.93
2023-04-20T05:10:09.758Z,0.60
2023-04-20T05:12:38.214Z,2.00
2023-04-20T05:15:07.173Z,1.87
2023-04-20T05:17:35.427Z,1.47
2023-04-20T05:20:06.332Z,1.03
2023-04-20T05:22:36.027Z,1.80
2023-04-20T05:25:04.209Z,1.03
2023-04-20T05:27:33.582Z,1.40
2023-04-20T05:30:13.136Z,2.90
2023-04-20T05:32:50.633Z,1.37
2023-04-20T05:35:20.021Z,1.60
2023-04-20T05:37:49.807Z,1.57
2023-04-20T05:40:17.897Z,0.93
2023-04-20T05:42:46.104Z,1.40
2023-04-20T05:45:14.284Z,1.90
2023-04-20T05:47:42.487Z,2.00
2023-04-20T05:50:11.729Z,1.60
2023-04-20T05:52:39.862Z,1.80
2023-04-20T05:55:33.528Z,1.83
2023-04-20T05:58:01.767Z,1.57
2023-04-20T06:00:29.887Z,1.23
2023-04-20T06:02:58.107Z,1.73
2023-04-20T06:05:26.337Z,1.40
2023-04-20T06:07:54.378Z,2.38
2023-04-20T06:10:22.458Z,1.95
2023-04-20T06:12:51.871Z,2.22
2023-04-20T06:15:20.090Z,2.53
2023-04-20T06:17:48.176Z,2.75
2023-04-20T06:20:16.799Z,1.30
2023-04-20T06:22:45.554Z,1.63
2023-04-20T06:25:13.969Z,2.13
2023-04-20T06:27:42.112Z,2.20
2023-04-20T06:30:12.705Z,2.05
2023-04-20T06:32:40.780Z,2.15
2023-04-20T06:35:09.683Z,1.55
2023-04-20T06:37:37.986Z,1.63
2023-04-20T06:40:08.212Z,1.67
2023-04-20T06:42:37.377Z,1.90
2023-04-20T06:45:06.521Z,2.38
2023-04-20T06:47:36.930Z,2.85
2023-04-20T06:50:09.666Z,1.50
2023-04-20T06:52:38.422Z,2.15
2023-04-20T06:55:07.204Z,1.60
2023-04-20T06:57:35.439Z,2.42
2023-04-20T07:00:04.139Z,2.00
2023-04-20T07:02:32.484Z,1.42
2023-04-20T07:05:03.416Z,2.03
2023-04-20T07:07:31.667Z,1.52
2023-04-20T07:09:59.883Z,1.02
2023-04-20T07:12:27.903Z,2.15
2023-04-20T07:14:56.087Z,2.83
2023-04-20T07:17:24.328Z,1.65
2023-04-20T07:19:52.686Z,2.22
2023-04-20T07:22:22.332Z,1.98
2023-04-20T07:24:50.597Z,1.75
2023-04-20T07:27:18.846Z,1.20
2023-04-20T07:29:47.122Z,1.65
2023-04-20T07:32:15.499Z,3.17
2023-04-20T07:34:43.766Z,3.27
2023-04-20T07:37:12.655Z,1.67
2023-04-20T07:39:42.125Z,3.55
2023-04-20T07:42:10.425Z,3.10
2023-04-20T07:44:38.796Z,2.17
2023-04-20T07:47:07.206Z,1.48
2023-04-20T07:49:38.352Z,1.10
2023-04-20T07:52:15.719Z,2.20
2023-04-20T07:54:46.685Z,1.02
2023-04-20T07:57:15.318Z,1.50
2023-04-20T07:59:43.558Z,1.58
2023-04-20T08:02:11.746Z,1.70
2023-04-20T08:04:40.089Z,1.00
2023-04-20T08:07:09.164Z,1.50
2023-04-20T08:09:37.561Z,1.60
2023-04-20T08:12:07.576Z,1.33
2023-04-20T08:14:35.740Z,0.90
2023-04-20T08:17:03.771Z,1.38
2023-04-20T08:19:31.946Z,2.67
2023-04-20T08:22:01.441Z,1.67
2023-04-20T08:24:30.573Z,1.55
2023-04-20T08:26:59.419Z,1.30
2023-04-20T08:29:29.093Z,1.65
2023-04-20T08:31:57.369Z,0.88
2023-04-20T08:34:25.657Z,1.30
2023-04-20T08:36:53.894Z,1.30
2023-04-20T08:39:24.413Z,0.82
2023-04-20T08:41:55.525Z,0.93
2023-04-20T08:44:23.884Z,3.35
2023-04-20T08:46:54.221Z,3.78
2023-04-20T08:49:22.375Z,2.15
2023-04-20T08:51:51.491Z,1.33
2023-04-20T08:54:19.769Z,3.25
2023-04-20T08:56:49.110Z,0.82
2023-04-20T08:59:17.834Z,1.40
2023-04-20T09:01:46.488Z,0.80
2023-04-20T09:04:20.756Z,1.10
2023-04-20T09:06:51.273Z,0.88
2023-04-20T09:09:20.143Z,1.02
2023-04-20T09:11:48.839Z,0.52
2023-04-20T09:14:18.471Z,0.73
2023-04-20T09:16:57.038Z,0.80
2023-04-20T09:19:27.421Z,1.25
2023-04-20T09:21:56.684Z,0.90
2023-04-20T09:24:31.611Z,0.68
2023-04-20T09:26:59.923Z,0.70
2023-04-20T09:29:28.062Z,1.00
2023-04-20T09:31:56.417Z,4.22
2023-04-20T09:34:26.737Z,0.65
2023-04-20T09:36:55.986Z,1.25
2023-04-20T09:39:25.298Z,0.80
2023-04-20T09:41:54.085Z,0.82
2023-04-20T09:44:23.406Z,1.05
2023-04-20T09:46:51.511Z,1.33
2023-04-20T09:49:21.387Z,1.27
2023-04-20T09:51:51.501Z,1.60
2023-04-20T09:54:20.757Z,0.77
2023-04-20T09:56:50.886Z,1.17
2023-04-20T09:59:22.346Z,1.10
2023-04-20T10:01:50.940Z,0.82
2023-04-20T10:04:19.868Z,0.90
2023-04-20T10:06:57.889Z,1.48
2023-04-20T10:09:27.301Z,2.17
2023-04-20T10:12:07.303Z,1.10
2023-04-20T10:14:36.255Z,0.98
2023-04-20T10:17:06.575Z,1.40
2023-04-20T10:19:39.902Z,0.77
2023-04-20T10:22:10.541Z,1.20
2023-04-20T10:24:39.240Z,1.42
2023-04-20T10:27:18.028Z,1.95
2023-04-20T10:29:46.266Z,1.27
2023-04-20T10:32:24.300Z,2.38
2023-04-20T10:35:03.680Z,1.55
2023-04-20T10:37:33.569Z,1.50
2023-04-20T10:40:01.956Z,0.88
2023-04-20T10:42:30.688Z,2.85
2023-04-20T10:44:58.881Z,1.73
2023-04-20T10:47:31.529Z,0.95
2023-04-20T10:50:09.317Z,1.45
2023-04-20T10:52:39.993Z,1.38
2023-04-20T10:55:19.379Z,1.55
2023-04-20T10:57:47.561Z,1.35
2023-04-20T11:00:17.836Z,1.35
2023-04-20T11:02:50.887Z,0.80
2023-04-20T11:05:20.322Z,1.52
2023-04-20T11:07:53.417Z,1.23
2023-04-20T11:10:22.328Z,1.50
2023-04-20T11:12:51.123Z,1.33
2023-04-20T11:15:19.672Z,1.50
2023-04-20T11:17:47.980Z,1.48
2023-04-20T11:20:18.647Z,1.20
2023-04-20T11:22:59.875Z,1.35
2023-04-20T11:25:28.259Z,1.13
2023-04-20T11:28:08.509Z,1.33
2023-04-20T11:30:41.261Z,1.40
2023-04-20T11:33:10.461Z,1.60
2023-04-20T11:35:40.057Z,1.25
2023-04-20T11:38:10.258Z,1.85
2023-04-20T11:40:39.452Z,0.75
2023-04-20T11:43:07.528Z,1.25
2023-04-20T11:45:36.737Z,1.40
2023-04-20T11:48:06.442Z,1.77
2023-04-20T11:50:34.666Z,1.10
2023-04-20T11:53:03.469Z,1.30
2023-04-20T11:55:33.151Z,0.65
2023-04-20T11:58:01.265Z,0.77
2023-04-20T12:00:29.996Z,0.70
2023-04-20T12:03:00.047Z,1.15
2023-04-20T12:05:28.597Z,0.40
2023-04-20T12:07:56.770Z,0.93
2023-04-20T12:10:24.959Z,0.98
2023-04-20T12:12:54.929Z,0.60
2023-04-20T12:15:23.190Z,1.10
2023-04-20T12:17:51.292Z,0.70
2023-04-20T12:20:19.440Z,0.47
2023-04-20T12:22:47.579Z,0.82
2023-04-20T12:25:15.671Z,1.05
2023-04-20T12:27:43.816Z,0.88
2023-04-20T12:30:14.656Z,0.43
2023-04-20T12:32:42.809Z,1.38
2023-04-20T12:35:11.173Z,0.80
2023-04-20T12:37:39.275Z,1.25
2023-04-20T12:40:08.782Z,0.68
2023-04-20T12:42:36.881Z,0.70
2023-04-20T12:45:05.393Z,0.57
2023-04-20T12:47:35.079Z,1.90
2023-04-20T12:50:03.333Z,2.00
2023-04-20T12:52:31.574Z,0.93
2023-04-20T12:54:59.781Z,0.73
2023-04-20T12:57:28.208Z,0.40
2023-04-20T12:59:56.732Z,0.70
2023-04-20T13:02:24.938Z,0.68
2023-04-20T13:04:54.947Z,0.63
2023-04-20T13:07:23.077Z,0.70
2023-04-20T13:09:51.137Z,0.75
2023-04-20T13:12:19.186Z,0.70
2023-04-20T13:14:47.275Z,0.85
2023-04-20T13:17:15.401Z,0.95
2023-04-20T13:19:43.566Z,0.70
2023-04-20T13:22:15.785Z,0.73
2023-04-20T13:24:46.420Z,0.60
2023-04-20T13:27:14.615Z,0.90
2023-04-20T13:29:42.780Z,0.73
2023-04-20T13:32:11.798Z,1.33
2023-04-20T13:34:39.965Z,1.08
2023-04-20T13:37:08.271Z,0.80
2023-04-20T13:39:38.449Z,0.70
2023-04-20T13:42:07.084Z,1.20
2023-04-20T13:44:35.576Z,0.60
2023-04-20T13:47:03.876Z,1.05
2023-04-20T13:49:32.033Z,0.85
2023-04-20T13:52:00.172Z,0.70
2023-04-20T13:54:28.446Z,0.60
2023-04-20T13:56:58.066Z,0.73
2023-04-20T13:59:26.248Z,0.50
2023-04-20T14:01:54.320Z,0.65
2023-04-20T14:04:22.632Z,1.00
2023-04-20T14:06:52.230Z,0.70
2023-04-20T14:09:20.616Z,0.50
2023-04-20T14:11:51.996Z,0.57
2023-04-20T14:14:23.759Z,0.50
2023-04-20T14:16:52.071Z,0.70
2023-04-20T14:19:20.318Z,0.68
2023-04-20T14:21:48.547Z,0.50
2023-04-20T14:24:16.769Z,0.40
2023-04-20T14:26:45.192Z,0.60
2023-04-20T14:29:13.740Z,0.68
2023-04-20T14:31:43.263Z,0.60
2023-04-20T14:34:13.183Z,0.45
2023-04-20T14:36:41.608Z,0.75
2023-04-20T14:39:10.028Z,0.40
2023-04-20T14:41:38.193Z,0.52
2023-04-20T14:44:06.792Z,0.70
2023-04-20T14:46:35.090Z,0.60
2023-04-20T14:49:04.832Z,0.55
2023-04-20T14:51:33.609Z,0.52
2023-04-20T14:54:01.864Z,0.82
2023-04-20T14:56:29.995Z,0.60
2023-04-20T14:58:59.623Z,1.30
2023-04-20T15:01:29.280Z,0.73
2023-04-20T15:03:57.818Z,0.70
2023-04-20T15:06:27.467Z,0.82
2023-04-20T15:08:56.498Z,0.80
2023-04-20T15:11:24.829Z,1.10
2023-04-20T15:13:54.259Z,1.17
2023-04-20T15:16:22.772Z,1.20
2023-04-20T15:18:53.137Z,1.05
2023-04-20T15:21:23.008Z,1.40
2023-04-20T15:23:52.629Z,1.15
2023-04-20T15:26:20.954Z,0.80
2023-04-20T15:28:49.927Z,0.70
2023-04-20T15:31:19.625Z,0.90
2023-04-20T15:33:48.138Z,0.90
2023-04-20T15:36:18.574Z,0.98
2023-04-20T15:38:46.835Z,0.82
2023-04-20T15:41:16.575Z,1.15
2023-04-20T15:43:44.785Z,1.30
2023-04-20T15:46:13.263Z,1.00
2023-04-20T15:48:41.796Z,1.30
2023-04-20T15:51:10.063Z,1.50
2023-04-20T15:53:38.751Z,3.72
2023-04-20T15:56:07.443Z,1.42
2023-04-20T15:58:37.320Z,1.08
2023-04-20T16:01:05.660Z,1.30
2023-04-20T16:03:34.115Z,1.65
2023-04-20T16:06:02.398Z,1.17
2023-04-20T16:08:30.769Z,1.25
2023-04-20T16:10:59.077Z,1.42
2023-04-20T16:13:27.359Z,1.25
2023-04-20T16:16:03.251Z,1.00
2023-04-20T16:18:32.280Z,0.93
2023-04-20T16:21:00.671Z,1.20
2023-04-20T16:23:29.993Z,1.08
2023-04-20T16:25:58.244Z,0.90
2023-04-20T16:28:27.665Z,2.42
2023-04-20T16:30:57.298Z,2.03
2023-04-20T16:33:25.984Z,1.95
2023-04-20T16:35:54.215Z,1.17
2023-04-20T16:38:22.758Z,1.38
2023-04-20T16:40:51.025Z,1.60
2023-04-20T16:43:19.332Z,1.85
2023-04-20T16:45:47.467Z,1.27
2023-04-20T16:48:17.009Z,2.20
2023-04-20T16:50:45.728Z,1.65
2023-04-20T16:53:13.877Z,1.23
2023-04-20T16:55:42.014Z,1.75
2023-04-20T16:58:10.235Z,2.38
2023-04-20T17:00:38.749Z,1.27
2023-04-20T17:03:10.507Z,1.75
2023-04-20T17:05:42.180Z,1.90
2023-04-20T17:08:10.757Z,2.15
2023-04-20T17:10:39.411Z,2.47
2023-04-20T17:13:07.646Z,2.53
2023-04-20T17:15:35.805Z,1.67
2023-04-20T17:18:04.620Z,1.83
2023-04-20T17:20:33.095Z,1.70
2023-04-20T17:23:02.917Z,1.88
2023-04-20T17:25:31.161Z,2.30
2023-04-20T17:27:59.601Z,2.28
2023-04-20T17:30:28.486Z,2.17
2023-04-20T17:32:57.352Z,2.17
2023-04-20T17:35:25.856Z,3.00
2023-04-20T17:37:54.095Z,1.98
2023-04-20T17:40:23.598Z,2.33
2023-04-20T17:42:51.720Z,2.83
2023-04-20T17:45:20.027Z,1.52
2023-04-20T17:47:48.222Z,1.60
2023-04-20T17:50:17.559Z,2.83
2023-04-20T17:52:45.767Z,2.05
2023-04-20T17:55:14.015Z,2.83
2023-04-20T17:57:43.484Z,2.60
2023-04-20T18:00:12.745Z,2.55
2023-04-20T18:02:41.124Z,1.58
2023-04-20T18:05:10.018Z,2.20
2023-04-20T18:07:38.269Z,1.80
2023-04-20T18:10:07.284Z,2.03
2023-04-20T18:12:35.583Z,1.65
2023-04-20T18:15:07.623Z,1.63
2023-04-20T18:17:36.614Z,2.45
2023-04-20T18:20:06.909Z,2.38
2023-04-20T18:22:35.053Z,2.17
2023-04-20T18:25:03.203Z,1.50
2023-04-20T18:27:31.342Z,1.52
2023-04-20T18:30:00.590Z,2.13
2023-04-20T18:32:31.011Z,2.47
2023-04-20T18:35:00.377Z,2.78
2023-04-20T18:37:28.635Z,1.50
2023-04-20T18:39:57.203Z,3.10
2023-04-20T18:42:25.448Z,1.80
2023-04-20T18:44:55.908Z,2.00
2023-04-20T18:47:26.446Z,2.00
2023-04-20T18:49:56.156Z,2.50
2023-04-20T18:52:24.454Z,1.33
2023-04-20T18:54:55.345Z,2.92
2023-04-20T18:57:26.285Z,2.78
2023-04-20T18:59:55.376Z,2.47
2023-04-20T19:02:23.911Z,2.15
2023-04-20T19:04:52.318Z,4.80
2023-04-20T19:07:21.789Z,1.80
2023-04-20T19:09:49.966Z,2.47
2023-04-20T19:12:18.254Z,2.35
2023-04-20T19:14:48.981Z,1.58
2023-04-20T19:17:17.586Z,2.88
2023-04-20T19:19:46.049Z,2.08
2023-04-20T19:22:14.239Z,2.95
2023-04-20T19:24:43.621Z,2.38
2023-04-20T19:27:11.750Z,2.10
2023-04-20T19:29:39.837Z,2.38
2023-04-20T19:32:08.278Z,2.15
2023-04-20T19:34:36.446Z,2.35
2023-04-20T19:37:04.668Z,1.55
2023-04-20T19:39:34.732Z,1.55
2023-04-20T19:42:04.487Z,3.03
2023-04-20T19:44:32.689Z,2.50
2023-04-20T19:47:00.782Z,1.90
2023-04-20T19:49:28.973Z,2.42
2023-04-20T19:51:57.117Z,2.67
2023-04-20T19:54:25.239Z,2.33
2023-04-20T19:56:53.281Z,2.10
2023-04-20T19:59:22.750Z,2.95
2023-04-20T20:01:51.039Z,3.20
2023-04-20T20:04:20.558Z,2.58
2023-04-20T20:06:50.713Z,3.22
2023-04-20T20:09:21.563Z,2.10
2023-04-20T20:11:51.424Z,3.88
2023-04-20T20:14:19.905Z,4.38
2023-04-20T20:16:49.775Z,5.13
2023-04-20T20:19:18.435Z,3.10
2023-04-20T20:21:46.698Z,3.20
2023-04-20T20:24:14.832Z,2.88
2023-04-20T20:26:42.977Z,4.38
2023-04-20T20:29:11.210Z,2.17
2023-04-20T20:31:39.413Z,1.65
2023-04-20T20:34:09.322Z,3.40
2023-04-20T20:36:37.721Z,2.55
2023-04-20T20:39:06.712Z,1.92
2023-04-20T20:41:35.030Z,3.40
2023-04-20T20:44:03.814Z,2.20
2023-04-20T20:46:32.643Z,2.97
2023-04-20T20:49:01.414Z,3.00
2023-04-20T20:51:31.484Z,2.83
2023-04-20T20:53:59.843Z,2.85
2023-04-20T20:56:28.013Z,4.53
2023-04-20T20:58:56.391Z,2.80
2023-04-20T21:01:24.652Z,4.18
2023-04-20T21:03:53.062Z,3.00
2023-04-20T21:06:21.335Z,3.47
2023-04-20T21:08:50.858Z,2.25
2023-04-20T21:11:19.040Z,3.20
2023-04-20T21:13:47.544Z,2.42
2023-04-20T21:16:15.710Z,3.67
2023-04-20T21:18:43.953Z,4.75
2023-04-20T21:21:13.383Z,4.80
2023-04-20T21:23:41.549Z,3.90
2023-04-20T21:26:11.160Z,3.35
2023-04-20T21:28:39.282Z,2.33
2023-04-20T21:31:07.376Z,3.65
2023-04-20T21:33:35.826Z,3.78
2023-04-20T21:36:04.150Z,2.70
2023-04-20T21:38:32.231Z,5.20
2023-04-20T21:41:00.285Z,4.38
2023-04-20T21:43:29.743Z,3.22
2023-04-20T21:45:57.892Z,3.67
2023-04-20T21:48:25.987Z,2.80
2023-04-20T21:50:54.062Z,3.88
2023-04-20T21:53:22.335Z,3.20
2023-04-20T21:55:50.457Z,4.63
2023-04-20T21:58:18.497Z,4.85
2023-04-20T22:00:48.163Z,3.00
2023-04-20T22:03:16.367Z,3.38
2023-04-20T22:05:44.486Z,3.85
2023-04-20T22:08:14.532Z,4.43
2023-04-20T22:10:42.825Z,3.50
2023-04-20T22:13:10.922Z,4.28
2023-04-20T22:15:38.974Z,3.85
2023-04-20T22:18:09.890Z,4.10
2023-04-20T22:20:38.346Z,3.35
2023-04-20T22:23:06.570Z,4.40
2023-04-20T22:25:34.615Z,2.72
2023-04-20T22:28:02.667Z,4.75
2023-04-20T22:30:30.621Z,3.25
2023-04-20T22:32:58.724Z,5.13
2023-04-20T22:35:28.412Z,4.07
2023-04-20T22:37:56.600Z,3.58
2023-04-20T22:40:25.001Z,3.47
2023-04-20T22:42:53.121Z,3.42
2023-04-20T22:45:22.014Z,3.92
2023-04-20T22:47:50.126Z,4.07
2023-04-20T22:50:18.601Z,2.78
2023-04-20T22:52:49.408Z,3.15
2023-04-20T22:55:17.461Z,3.17
2023-04-20T22:57:45.480Z,4.45
2023-04-20T23:00:14.536Z,3.63
2023-04-20T23:02:42.938Z,3.15
2023-04-20T23:05:11.556Z,2.90
2023-04-20T23:07:40.177Z,3.38
2023-04-20T23:10:11.759Z,5.93
2023-04-20T23:12:39.885Z,5.25
2023-04-20T23:15:09.051Z,4.72
2023-04-20T23:17:37.207Z,4.28
2023-04-20T23:20:07.319Z,5.32
2023-04-20T23:22:35.896Z,5.18
2023-04-20T23:25:03.927Z,5.43
2023-04-20T23:27:33.363Z,4.60
2023-04-20T23:30:01.406Z,4.95
2023-04-20T23:32:29.545Z,4.53
2023-04-20T23:34:57.650Z,5.05
2023-04-20T23:37:25.748Z,3.95
2023-04-20T23:39:58.648Z,3.47
2023-04-20T23:42:26.692Z,3.72
2023-04-20T23:44:56.047Z,3.17
2023-04-20T23:47:24.134Z,4.70
2023-04-20T23:49:52.232Z,5.30
2023-04-20T23:52:20.202Z,4.93
2023-04-20T23:54:48.207Z,5.18
2023-04-20T23:57:16.301Z,4.00
2023-04-20T23:59:44.337Z,4.13
